Dayton, WA

2:40 AM PDT on October 22, 2014 (GMT -0700)
Tri-Cities | Change Station
CLOSE
Current Station
Airport
Location: Pasco,
Elevation: 407 ft
Nearby Weather Stations

Elev 407 ft 46.26 °N, 119.12 °W | Updated 47 minutes ago

Partly Cloudy
Partly Cloudy
47 °F
Feels Like 47 °F
N
6
Wind Variable Wind from ESE

Today
High -- | Low -- °F
--% Chance of Precip.
Yesterday
High -- | Low -- °F
Precip. -- in
7:19 AM 5:52 PM
Waning Crescent, 2% visible
Pressure 29.90 in
Visibility 10.0 miles
Clouds Clear
Dew Point 44 °F
Humidity 90%
Rainfall 0.00 in
Snow Depth 0 in
UV 0 out of 12
Pollen 1.60 out of 12
Air Quality Not available.
Flu Activity Sporadic
METAR KPSC 220853Z AUTO 12005KT 10SM CLR 08/07 A2990 RMK AO2 SLP125 T00830067 57013

More Conditions Fewer Conditions

Pressure 29.90 in
Visibility 10.0 miles
Clouds Clear
Dew Point 44 °F
Humidity 90%
Rainfall 0.00 in
Snow Depth 0 in
UV 0 out of 12
Pollen 1.60 out of 12
Air Quality Not available.
Flu Activity Sporadic
METAR KPSC 220853Z AUTO 12005KT 10SM CLR 08/07 A2990 RMK AO2 SLP125 T00830067 57013

More Conditions Fewer Conditions

10-Day Weather Forecast

Almanac

Astronomy

Oct. 22, 2014 Rise Set
Actual Time 7:19 AM PDT 5:52 PM PDT
Civil Twilight 6:48 AM PDT 6:23 PM PDT
Nautical Twilight 6:13 AM PDT 6:58 PM PDT
Astronomical Twilight 5:38 AM PDT 7:33 PM PDT
Moon 6:00 AM PDT 5:24 PM PDT
Length of Visible Light 11h 35m
Length of Day
10h 33m
Tomorrow will be 3m 5s shorter.
Waning Crescent, 2% of the Moon is Illuminated
Today
Waning Crescent
Oct 23
New
Oct 30
First Quarter
Nov 6
Full
Nov 14
Last Quarter

Today's Extremes

State Highs State Lows

Community

WunderPhotos

Upload Photos

1,763,900 photos uploaded!

Nearby

Snow Depth

Station Depth Elevation
Touchet 0 in 5530 ft
Spruce Springs 1 in 5700 ft
Sourdough Gulch 0 in 4000 ft
Quartz Peak 2 in 4700 ft
Trough 0 in 5300 ft

Earthquake Activity

City Distance Mag. Time & Date
No recent earthquake activity has been reported nearby.
Minimum magnitude displayed is 2.5.

Coastal Water Temperatures

Place Temperature
No Stations Reporting

Nearby Weather Stations